sensor_id;sensor_type;location;lat;lon;timestamp;P1;durP1;ratioP1;P2;durP2;ratioP2
2390;SDS011;22957;50.824;4.360;2022-12-29T00:02:04;1.30;;;1.07;;
2390;SDS011;22957;50.824;4.360;2022-12-29T00:04:30;1.00;;;0.80;;
2390;SDS011;22957;50.824;4.360;2022-12-29T00:06:55;2.47;;;0.83;;
2390;SDS011;22957;50.824;4.360;2022-12-29T00:09:21;1.83;;;0.90;;
2390;SDS011;22957;50.824;4.360;2022-12-29T00:11:47;1.30;;;0.60;;
2390;SDS011;22957;50.824;4.360;2022-12-29T00:14:15;2.27;;;1.00;;
2390;SDS011;22957;50.824;4.360;2022-12-29T00:16:59;1.70;;;0.70;;
2390;SDS011;22957;50.824;4.360;2022-12-29T00:19:25;3.33;;;0.77;;
2390;SDS011;22957;50.824;4.360;2022-12-29T00:22:10;1.30;;;0.80;;
2390;SDS011;22957;50.824;4.360;2022-12-29T00:24:56;1.10;;;0.60;;
2390;SDS011;22957;50.824;4.360;2022-12-29T00:27:25;2.70;;;0.90;;
2390;SDS011;22957;50.824;4.360;2022-12-29T00:30:10;2.50;;;0.90;;
2390;SDS011;22957;50.824;4.360;2022-12-29T00:32:56;2.87;;;0.77;;
2390;SDS011;22957;50.824;4.360;2022-12-29T00:35:52;6.43;;;0.80;;
2390;SDS011;22957;50.824;4.360;2022-12-29T00:38:22;2.17;;;0.70;;
2390;SDS011;22957;50.824;4.360;2022-12-29T00:41:06;2.03;;;0.60;;
2390;SDS011;22957;50.824;4.360;2022-12-29T00:43:53;3.07;;;0.70;;
2390;SDS011;22957;50.824;4.360;2022-12-29T00:46:34;2.83;;;0.70;;
2390;SDS011;22957;50.824;4.360;2022-12-29T00:49:01;1.00;;;0.60;;
2390;SDS011;22957;50.824;4.360;2022-12-29T00:51:46;7.40;;;0.80;;
2390;SDS011;22957;50.824;4.360;2022-12-29T00:54:13;4.47;;;0.70;;
2390;SDS011;22957;50.824;4.360;2022-12-29T00:56:39;2.50;;;0.70;;
2390;SDS011;22957;50.824;4.360;2022-12-29T00:59:06;4.33;;;0.80;;
2390;SDS011;22957;50.824;4.360;2022-12-29T01:01:33;4.50;;;0.70;;
2390;SDS011;22957;50.824;4.360;2022-12-29T01:03:59;3.13;;;0.90;;
2390;SDS011;22957;50.824;4.360;2022-12-29T01:06:25;3.30;;;1.00;;
2390;SDS011;22957;50.824;4.360;2022-12-29T01:08:51;3.27;;;1.07;;
2390;SDS011;22957;50.824;4.360;2022-12-29T01:11:37;3.17;;;0.90;;
2390;SDS011;22957;50.824;4.360;2022-12-29T01:14:03;3.00;;;0.87;;
2390;SDS011;22957;50.824;4.360;2022-12-29T01:16:29;1.43;;;0.70;;
2390;SDS011;22957;50.824;4.360;2022-12-29T01:18:55;1.73;;;0.57;;
2390;SDS011;22957;50.824;4.360;2022-12-29T01:21:21;3.43;;;0.60;;
2390;SDS011;22957;50.824;4.360;2022-12-29T01:23:47;3.27;;;0.83;;
2390;SDS011;22957;50.824;4.360;2022-12-29T01:26:14;2.03;;;0.70;;
2390;SDS011;22957;50.824;4.360;2022-12-29T01:28:41;2.30;;;0.77;;
2390;SDS011;22957;50.824;4.360;2022-12-29T01:31:07;2.20;;;0.70;;
2390;SDS011;22957;50.824;4.360;2022-12-29T01:33:34;4.60;;;0.97;;
2390;SDS011;22957;50.824;4.360;2022-12-29T01:36:03;1.80;;;1.00;;
2390;SDS011;22957;50.824;4.360;2022-12-29T01:38:30;2.07;;;0.90;;
2390;SDS011;22957;50.824;4.360;2022-12-29T01:40:56;3.87;;;0.87;;
2390;SDS011;22957;50.824;4.360;2022-12-29T01:43:37;3.53;;;0.90;;
2390;SDS011;22957;50.824;4.360;2022-12-29T01:46:06;2.30;;;0.80;;
2390;SDS011;22957;50.824;4.360;2022-12-29T01:49:17;3.17;;;1.23;;
2390;SDS011;22957;50.824;4.360;2022-12-29T01:51:56;1.53;;;0.60;;
2390;SDS011;22957;50.824;4.360;2022-12-29T01:54:33;5.20;;;1.00;;
2390;SDS011;22957;50.824;4.360;2022-12-29T01:57:15;2.27;;;0.70;;
2390;SDS011;22957;50.824;4.360;2022-12-29T01:59:52;1.20;;;0.60;;
2390;SDS011;22957;50.824;4.360;2022-12-29T02:02:25;2.60;;;0.70;;
2390;SDS011;22957;50.824;4.360;2022-12-29T02:04:50;3.93;;;0.73;;
2390;SDS011;22957;50.824;4.360;2022-12-29T02:07:19;1.57;;;0.60;;
2390;SDS011;22957;50.824;4.360;2022-12-29T02:09:48;2.03;;;0.53;;
2390;SDS011;22957;50.824;4.360;2022-12-29T02:12:16;1.50;;;0.50;;
2390;SDS011;22957;50.824;4.360;2022-12-29T02:14:42;3.10;;;0.63;;
2390;SDS011;22957;50.824;4.360;2022-12-29T02:17:13;1.37;;;0.57;;
2390;SDS011;22957;50.824;4.360;2022-12-29T02:19:54;1.47;;;0.50;;
2390;SDS011;22957;50.824;4.360;2022-12-29T02:34:06;0.90;;;0.40;;
2390;SDS011;22957;50.824;4.360;2022-12-29T02:37:03;4.63;;;0.90;;
2390;SDS011;22957;50.824;4.360;2022-12-29T02:42:27;1.40;;;0.50;;
2390;SDS011;22957;50.824;4.360;2022-12-29T02:45:13;0.90;;;0.40;;
2390;SDS011;22957;50.824;4.360;2022-12-29T02:50:37;1.57;;;0.50;;
2390;SDS011;22957;50.824;4.360;2022-12-29T02:53:13;1.77;;;0.60;;
2390;SDS011;22957;50.824;4.360;2022-12-29T02:55:48;1.40;;;0.50;;
2390;SDS011;22957;50.824;4.360;2022-12-29T02:58:18;1.53;;;0.50;;
2390;SDS011;22957;50.824;4.360;2022-12-29T03:01:01;2.17;;;0.50;;
2390;SDS011;22957;50.824;4.360;2022-12-29T03:04:03;1.20;;;0.53;;
2390;SDS011;22957;50.824;4.360;2022-12-29T03:11:59;1.20;;;0.60;;
2390;SDS011;22957;50.824;4.360;2022-12-29T03:14:44;2.90;;;0.70;;
2390;SDS011;22957;50.824;4.360;2022-12-29T03:18:04;2.47;;;0.60;;
2390;SDS011;22957;50.824;4.360;2022-12-29T03:21:05;2.73;;;0.63;;
2390;SDS011;22957;50.824;4.360;2022-12-29T03:24:13;1.50;;;0.60;;
2390;SDS011;22957;50.824;4.360;2022-12-29T03:26:40;1.57;;;0.50;;
2390;SDS011;22957;50.824;4.360;2022-12-29T03:29:07;1.40;;;0.60;;
2390;SDS011;22957;50.824;4.360;2022-12-29T03:31:35;1.73;;;0.50;;
2390;SDS011;22957;50.824;4.360;2022-12-29T03:34:02;2.67;;;0.60;;
2390;SDS011;22957;50.824;4.360;2022-12-29T03:36:32;1.00;;;0.50;;
2390;SDS011;22957;50.824;4.360;2022-12-29T03:39:06;1.13;;;0.50;;
2390;SDS011;22957;50.824;4.360;2022-12-29T03:41:37;1.20;;;0.50;;
2390;SDS011;22957;50.824;4.360;2022-12-29T03:44:09;3.03;;;0.80;;
2390;SDS011;22957;50.824;4.360;2022-12-29T03:46:36;1.70;;;0.50;;
2390;SDS011;22957;50.824;4.360;2022-12-29T03:49:01;3.03;;;0.80;;
2390;SDS011;22957;50.824;4.360;2022-12-29T03:51:27;3.87;;;0.83;;
2390;SDS011;22957;50.824;4.360;2022-12-29T03:53:53;2.80;;;0.87;;
2390;SDS011;22957;50.824;4.360;2022-12-29T03:56:18;5.63;;;1.20;;
2390;SDS011;22957;50.824;4.360;2022-12-29T03:58:44;5.47;;;0.70;;
2390;SDS011;22957;50.824;4.360;2022-12-29T04:01:10;2.53;;;0.80;;
2390;SDS011;22957;50.824;4.360;2022-12-29T04:03:35;1.30;;;0.60;;
2390;SDS011;22957;50.824;4.360;2022-12-29T04:06:01;2.10;;;0.70;;
2390;SDS011;22957;50.824;4.360;2022-12-29T04:08:27;3.53;;;0.70;;
2390;SDS011;22957;50.824;4.360;2022-12-29T04:10:53;2.80;;;0.70;;
2390;SDS011;22957;50.824;4.360;2022-12-29T04:13:18;3.27;;;0.60;;
2390;SDS011;22957;50.824;4.360;2022-12-29T04:15:44;1.63;;;0.50;;
2390;SDS011;22957;50.824;4.360;2022-12-29T04:18:10;7.33;;;0.80;;
2390;SDS011;22957;50.824;4.360;2022-12-29T04:20:36;4.87;;;0.80;;
2390;SDS011;22957;50.824;4.360;2022-12-29T04:23:21;2.53;;;0.67;;
2390;SDS011;22957;50.824;4.360;2022-12-29T04:25:47;7.07;;;0.70;;
2390;SDS011;22957;50.824;4.360;2022-12-29T04:28:13;3.00;;;0.80;;
2390;SDS011;22957;50.824;4.360;2022-12-29T04:30:39;3.80;;;0.80;;
2390;SDS011;22957;50.824;4.360;2022-12-29T04:33:05;1.77;;;0.70;;
2390;SDS011;22957;50.824;4.360;2022-12-29T04:35:30;4.90;;;0.70;;
2390;SDS011;22957;50.824;4.360;2022-12-29T04:37:56;2.47;;;0.83;;
2390;SDS011;22957;50.824;4.360;2022-12-29T04:40:22;6.50;;;0.80;;
2390;SDS011;22957;50.824;4.360;2022-12-29T04:42:49;2.83;;;0.80;;
2390;SDS011;22957;50.824;4.360;2022-12-29T04:45:14;4.20;;;1.00;;
2390;SDS011;22957;50.824;4.360;2022-12-29T04:47:40;3.73;;;0.73;;
2390;SDS011;22957;50.824;4.360;2022-12-29T04:50:06;3.63;;;0.80;;
2390;SDS011;22957;50.824;4.360;2022-12-29T04:52:33;2.80;;;0.90;;
2390;SDS011;22957;50.824;4.360;2022-12-29T04:55:02;3.33;;;0.80;;
2390;SDS011;22957;50.824;4.360;2022-12-29T04:57:28;3.20;;;0.70;;
2390;SDS011;22957;50.824;4.360;2022-12-29T04:59:54;4.50;;;1.00;;
2390;SDS011;22957;50.824;4.360;2022-12-29T05:02:20;2.63;;;0.70;;
2390;SDS011;22957;50.824;4.360;2022-12-29T05:04:46;3.00;;;0.70;;
2390;SDS011;22957;50.824;4.360;2022-12-29T05:07:12;1.30;;;0.73;;
2390;SDS011;22957;50.824;4.360;2022-12-29T05:09:38;4.50;;;0.80;;
2390;SDS011;22957;50.824;4.360;2022-12-29T05:12:04;6.67;;;0.93;;
2390;SDS011;22957;50.824;4.360;2022-12-29T05:14:30;3.70;;;0.87;;
2390;SDS011;22957;50.824;4.360;2022-12-29T05:16:55;5.07;;;1.27;;
2390;SDS011;22957;50.824;4.360;2022-12-29T05:19:21;4.13;;;1.10;;
2390;SDS011;22957;50.824;4.360;2022-12-29T05:21:47;7.30;;;1.00;;
2390;SDS011;22957;50.824;4.360;2022-12-29T05:24:13;6.13;;;0.90;;
2390;SDS011;22957;50.824;4.360;2022-12-29T05:26:38;3.97;;;1.00;;
2390;SDS011;22957;50.824;4.360;2022-12-29T05:29:04;6.47;;;1.00;;
2390;SDS011;22957;50.824;4.360;2022-12-29T05:31:30;6.67;;;0.80;;
2390;SDS011;22957;50.824;4.360;2022-12-29T05:33:56;4.80;;;0.97;;
2390;SDS011;22957;50.824;4.360;2022-12-29T05:36:21;11.27;;;1.13;;
2390;SDS011;22957;50.824;4.360;2022-12-29T05:38:47;2.90;;;0.93;;
2390;SDS011;22957;50.824;4.360;2022-12-29T05:41:13;5.60;;;0.80;;
2390;SDS011;22957;50.824;4.360;2022-12-29T05:43:38;5.43;;;0.90;;
2390;SDS011;22957;50.824;4.360;2022-12-29T05:46:04;3.07;;;0.90;;
2390;SDS011;22957;50.824;4.360;2022-12-29T05:48:30;3.93;;;1.00;;
2390;SDS011;22957;50.824;4.360;2022-12-29T05:50:55;3.80;;;0.80;;
2390;SDS011;22957;50.824;4.360;2022-12-29T05:53:21;3.33;;;0.90;;
2390;SDS011;22957;50.824;4.360;2022-12-29T05:55:47;3.27;;;0.90;;
2390;SDS011;22957;50.824;4.360;2022-12-29T05:58:14;7.27;;;1.00;;
2390;SDS011;22957;50.824;4.360;2022-12-29T06:00:41;10.43;;;1.23;;
2390;SDS011;22957;50.824;4.360;2022-12-29T06:03:07;6.40;;;1.20;;
2390;SDS011;22957;50.824;4.360;2022-12-29T06:05:33;3.53;;;0.93;;
2390;SDS011;22957;50.824;4.360;2022-12-29T06:07:59;8.23;;;1.23;;
2390;SDS011;22957;50.824;4.360;2022-12-29T06:10:25;5.50;;;1.37;;
2390;SDS011;22957;50.824;4.360;2022-12-29T06:12:50;7.07;;;1.00;;
2390;SDS011;22957;50.824;4.360;2022-12-29T06:15:16;5.13;;;1.00;;
2390;SDS011;22957;50.824;4.360;2022-12-29T06:17:42;8.13;;;1.20;;
2390;SDS011;22957;50.824;4.360;2022-12-29T06:20:09;6.30;;;0.73;;
2390;SDS011;22957;50.824;4.360;2022-12-29T06:22:36;6.47;;;1.33;;
2390;SDS011;22957;50.824;4.360;2022-12-29T06:25:01;5.87;;;1.00;;
2390;SDS011;22957;50.824;4.360;2022-12-29T06:27:27;4.27;;;0.80;;
2390;SDS011;22957;50.824;4.360;2022-12-29T06:29:53;8.10;;;1.43;;
2390;SDS011;22957;50.824;4.360;2022-12-29T06:32:19;3.60;;;1.00;;
2390;SDS011;22957;50.824;4.360;2022-12-29T06:34:45;6.63;;;1.00;;
2390;SDS011;22957;50.824;4.360;2022-12-29T06:37:11;3.30;;;0.90;;
2390;SDS011;22957;50.824;4.360;2022-12-29T06:39:37;5.57;;;1.00;;
2390;SDS011;22957;50.824;4.360;2022-12-29T06:42:02;5.83;;;1.00;;
2390;SDS011;22957;50.824;4.360;2022-12-29T06:44:28;5.80;;;1.73;;
2390;SDS011;22957;50.824;4.360;2022-12-29T06:46:54;11.87;;;1.33;;
2390;SDS011;22957;50.824;4.360;2022-12-29T06:49:20;6.50;;;1.00;;
2390;SDS011;22957;50.824;4.360;2022-12-29T06:51:46;8.10;;;1.20;;
2390;SDS011;22957;50.824;4.360;2022-12-29T06:54:12;6.77;;;1.00;;
2390;SDS011;22957;50.824;4.360;2022-12-29T06:56:38;4.60;;;0.90;;
2390;SDS011;22957;50.824;4.360;2022-12-29T06:59:03;10.50;;;1.97;;
2390;SDS011;22957;50.824;4.360;2022-12-29T07:01:30;11.40;;;1.47;;
2390;SDS011;22957;50.824;4.360;2022-12-29T07:03:56;8.17;;;1.43;;
2390;SDS011;22957;50.824;4.360;2022-12-29T07:06:22;7.83;;;1.03;;
2390;SDS011;22957;50.824;4.360;2022-12-29T07:08:48;10.13;;;1.40;;
2390;SDS011;22957;50.824;4.360;2022-12-29T07:11:14;6.57;;;1.30;;
2390;SDS011;22957;50.824;4.360;2022-12-29T07:13:39;4.33;;;0.80;;
2390;SDS011;22957;50.824;4.360;2022-12-29T07:16:06;4.17;;;0.80;;
2390;SDS011;22957;50.824;4.360;2022-12-29T07:18:32;5.03;;;1.00;;
2390;SDS011;22957;50.824;4.360;2022-12-29T07:20:58;7.93;;;1.37;;
2390;SDS011;22957;50.824;4.360;2022-12-29T07:23:24;9.60;;;1.13;;
2390;SDS011;22957;50.824;4.360;2022-12-29T07:25:50;4.73;;;1.10;;
2390;SDS011;22957;50.824;4.360;2022-12-29T07:28:23;14.70;;;1.10;;
2390;SDS011;22957;50.824;4.360;2022-12-29T07:30:49;7.13;;;1.00;;
2390;SDS011;22957;50.824;4.360;2022-12-29T07:33:14;6.20;;;1.00;;
2390;SDS011;22957;50.824;4.360;2022-12-29T07:35:40;16.10;;;1.10;;
2390;SDS011;22957;50.824;4.360;2022-12-29T07:38:06;3.67;;;1.30;;
2390;SDS011;22957;50.824;4.360;2022-12-29T07:40:31;5.20;;;0.93;;
2390;SDS011;22957;50.824;4.360;2022-12-29T07:42:57;11.83;;;1.87;;
2390;SDS011;22957;50.824;4.360;2022-12-29T07:45:23;8.30;;;1.20;;
2390;SDS011;22957;50.824;4.360;2022-12-29T07:47:49;5.70;;;1.13;;
2390;SDS011;22957;50.824;4.360;2022-12-29T07:50:15;6.33;;;1.10;;
2390;SDS011;22957;50.824;4.360;2022-12-29T07:52:41;8.70;;;1.40;;
2390;SDS011;22957;50.824;4.360;2022-12-29T07:55:08;6.57;;;1.27;;
2390;SDS011;22957;50.824;4.360;2022-12-29T07:57:34;10.03;;;1.30;;
2390;SDS011;22957;50.824;4.360;2022-12-29T07:59:59;7.43;;;1.10;;
2390;SDS011;22957;50.824;4.360;2022-12-29T08:02:26;9.40;;;1.40;;
2390;SDS011;22957;50.824;4.360;2022-12-29T08:04:51;16.00;;;1.80;;
2390;SDS011;22957;50.824;4.360;2022-12-29T08:07:17;5.73;;;1.10;;
2390;SDS011;22957;50.824;4.360;2022-12-29T08:09:43;10.07;;;1.23;;
2390;SDS011;22957;50.824;4.360;2022-12-29T08:12:09;9.73;;;1.40;;
2390;SDS011;22957;50.824;4.360;2022-12-29T08:14:35;9.97;;;2.03;;
2390;SDS011;22957;50.824;4.360;2022-12-29T08:17:01;15.40;;;1.60;;
2390;SDS011;22957;50.824;4.360;2022-12-29T08:19:27;13.33;;;1.60;;
2390;SDS011;22957;50.824;4.360;2022-12-29T08:21:53;6.77;;;1.17;;
2390;SDS011;22957;50.824;4.360;2022-12-29T08:24:18;11.17;;;1.60;;
2390;SDS011;22957;50.824;4.360;2022-12-29T08:26:44;12.50;;;1.70;;
2390;SDS011;22957;50.824;4.360;2022-12-29T08:29:10;12.73;;;1.90;;
2390;SDS011;22957;50.824;4.360;2022-12-29T08:31:36;10.83;;;2.43;;
2390;SDS011;22957;50.824;4.360;2022-12-29T08:34:02;11.40;;;1.73;;
2390;SDS011;22957;50.824;4.360;2022-12-29T08:36:28;7.47;;;1.30;;
2390;SDS011;22957;50.824;4.360;2022-12-29T08:38:55;9.20;;;1.60;;
2390;SDS011;22957;50.824;4.360;2022-12-29T08:41:21;6.13;;;1.37;;
2390;SDS011;22957;50.824;4.360;2022-12-29T08:43:47;7.97;;;1.43;;
2390;SDS011;22957;50.824;4.360;2022-12-29T08:46:14;10.37;;;1.67;;
2390;SDS011;22957;50.824;4.360;2022-12-29T08:48:41;7.90;;;1.30;;
2390;SDS011;22957;50.824;4.360;2022-12-29T08:51:07;12.13;;;1.37;;
2390;SDS011;22957;50.824;4.360;2022-12-29T08:53:33;10.10;;;1.73;;
2390;SDS011;22957;50.824;4.360;2022-12-29T08:56:00;5.90;;;0.97;;
2390;SDS011;22957;50.824;4.360;2022-12-29T08:58:27;8.73;;;1.30;;
2390;SDS011;22957;50.824;4.360;2022-12-29T09:00:53;7.67;;;1.30;;
2390;SDS011;22957;50.824;4.360;2022-12-29T09:03:20;6.13;;;1.20;;
2390;SDS011;22957;50.824;4.360;2022-12-29T09:05:48;5.37;;;1.20;;
2390;SDS011;22957;50.824;4.360;2022-12-29T09:08:15;16.03;;;1.40;;
2390;SDS011;22957;50.824;4.360;2022-12-29T09:10:41;6.33;;;1.20;;
2390;SDS011;22957;50.824;4.360;2022-12-29T09:13:07;11.07;;;1.60;;
2390;SDS011;22957;50.824;4.360;2022-12-29T09:15:33;9.47;;;1.37;;
2390;SDS011;22957;50.824;4.360;2022-12-29T09:17:59;8.50;;;1.73;;
2390;SDS011;22957;50.824;4.360;2022-12-29T09:20:25;10.10;;;1.30;;
2390;SDS011;22957;50.824;4.360;2022-12-29T09:22:50;10.50;;;1.50;;
2390;SDS011;22957;50.824;4.360;2022-12-29T09:25:16;7.20;;;1.40;;
2390;SDS011;22957;50.824;4.360;2022-12-29T09:27:42;8.10;;;1.70;;
2390;SDS011;22957;50.824;4.360;2022-12-29T09:30:09;7.17;;;1.30;;
2390;SDS011;22957;50.824;4.360;2022-12-29T09:32:36;10.67;;;1.70;;
2390;SDS011;22957;50.824;4.360;2022-12-29T09:35:03;7.70;;;1.20;;
2390;SDS011;22957;50.824;4.360;2022-12-29T09:37:29;7.97;;;1.57;;
2390;SDS011;22957;50.824;4.360;2022-12-29T09:39:54;9.67;;;1.60;;
2390;SDS011;22957;50.824;4.360;2022-12-29T09:42:32;7.27;;;1.30;;
2390;SDS011;22957;50.824;4.360;2022-12-29T09:45:18;14.13;;;1.53;;
2390;SDS011;22957;50.824;4.360;2022-12-29T09:48:06;7.70;;;1.30;;
2390;SDS011;22957;50.824;4.360;2022-12-29T09:50:40;7.60;;;1.20;;
2390;SDS011;22957;50.824;4.360;2022-12-29T09:53:21;10.87;;;1.30;;
2390;SDS011;22957;50.824;4.360;2022-12-29T09:55:53;5.20;;;1.13;;
2390;SDS011;22957;50.824;4.360;2022-12-29T09:58:22;10.57;;;1.70;;
2390;SDS011;22957;50.824;4.360;2022-12-29T10:04:02;6.50;;;1.20;;
2390;SDS011;22957;50.824;4.360;2022-12-29T10:11:52;12.23;;;1.90;;
2390;SDS011;22957;50.824;4.360;2022-12-29T10:14:50;9.37;;;1.33;;
2390;SDS011;22957;50.824;4.360;2022-12-29T10:22:36;9.80;;;1.47;;
2390;SDS011;22957;50.824;4.360;2022-12-29T10:25:24;10.90;;;2.07;;
2390;SDS011;22957;50.824;4.360;2022-12-29T10:27:51;8.60;;;2.03;;
2390;SDS011;22957;50.824;4.360;2022-12-29T10:30:21;11.47;;;1.97;;
2390;SDS011;22957;50.824;4.360;2022-12-29T10:32:49;9.90;;;1.80;;
2390;SDS011;22957;50.824;4.360;2022-12-29T10:35:23;10.30;;;1.60;;
2390;SDS011;22957;50.824;4.360;2022-12-29T10:40:38;7.70;;;1.57;;
2390;SDS011;22957;50.824;4.360;2022-12-29T10:46:02;10.60;;;1.50;;
2390;SDS011;22957;50.824;4.360;2022-12-29T10:48:35;17.13;;;1.90;;
2390;SDS011;22957;50.824;4.360;2022-12-29T10:51:02;12.30;;;1.87;;
2390;SDS011;22957;50.824;4.360;2022-12-29T10:53:34;5.90;;;1.30;;
2390;SDS011;22957;50.824;4.360;2022-12-29T10:56:15;11.50;;;1.30;;
2390;SDS011;22957;50.824;4.360;2022-12-29T10:58:58;8.63;;;1.80;;
2390;SDS011;22957;50.824;4.360;2022-12-29T11:01:30;8.83;;;1.20;;
2390;SDS011;22957;50.824;4.360;2022-12-29T11:06:38;10.43;;;1.80;;
2390;SDS011;22957;50.824;4.360;2022-12-29T11:09:27;13.10;;;1.47;;
2390;SDS011;22957;50.824;4.360;2022-12-29T11:11:53;8.77;;;1.50;;
2390;SDS011;22957;50.824;4.360;2022-12-29T11:14:29;12.67;;;2.10;;
2390;SDS011;22957;50.824;4.360;2022-12-29T11:16:59;11.23;;;1.60;;
2390;SDS011;22957;50.824;4.360;2022-12-29T11:19:28;17.23;;;2.50;;
2390;SDS011;22957;50.824;4.360;2022-12-29T11:22:18;21.30;;;3.00;;
2390;SDS011;22957;50.824;4.360;2022-12-29T11:24:48;13.93;;;2.30;;
2390;SDS011;22957;50.824;4.360;2022-12-29T11:27:19;7.47;;;1.77;;
2390;SDS011;22957;50.824;4.360;2022-12-29T11:29:47;10.97;;;1.93;;
2390;SDS011;22957;50.824;4.360;2022-12-29T11:32:21;7.73;;;1.20;;
2390;SDS011;22957;50.824;4.360;2022-12-29T11:34:52;16.80;;;1.97;;
2390;SDS011;22957;50.824;4.360;2022-12-29T11:37:31;8.30;;;2.43;;
2390;SDS011;22957;50.824;4.360;2022-12-29T11:40:16;20.33;;;1.83;;
2390;SDS011;22957;50.824;4.360;2022-12-29T11:43:02;10.80;;;1.80;;
2390;SDS011;22957;50.824;4.360;2022-12-29T11:45:30;10.00;;;1.50;;
2390;SDS011;22957;50.824;4.360;2022-12-29T11:48:08;10.70;;;1.60;;
2390;SDS011;22957;50.824;4.360;2022-12-29T11:50:54;10.43;;;1.60;;
2390;SDS011;22957;50.824;4.360;2022-12-29T11:53:24;10.30;;;1.70;;
2390;SDS011;22957;50.824;4.360;2022-12-29T11:55:57;12.10;;;2.17;;
2390;SDS011;22957;50.824;4.360;2022-12-29T11:58:35;10.40;;;1.83;;
2390;SDS011;22957;50.824;4.360;2022-12-29T12:04:09;9.80;;;2.10;;
2390;SDS011;22957;50.824;4.360;2022-12-29T12:06:47;13.10;;;1.70;;
2390;SDS011;22957;50.824;4.360;2022-12-29T12:09:27;10.13;;;2.00;;
2390;SDS011;22957;50.824;4.360;2022-12-29T12:11:56;8.43;;;1.33;;
2390;SDS011;22957;50.824;4.360;2022-12-29T12:14:29;7.13;;;1.40;;
2390;SDS011;22957;50.824;4.360;2022-12-29T12:17:16;10.77;;;1.43;;
2390;SDS011;22957;50.824;4.360;2022-12-29T12:25:04;3.50;;;1.40;;
2390;SDS011;22957;50.824;4.360;2022-12-29T12:30:28;14.60;;;1.93;;
2390;SDS011;22957;50.824;4.360;2022-12-29T12:46:18;5.80;;;1.30;;
2390;SDS011;22957;50.824;4.360;2022-12-29T12:52:07;10.77;;;1.47;;
2390;SDS011;22957;50.824;4.360;2022-12-29T12:57:57;7.93;;;1.50;;
2390;SDS011;22957;50.824;4.360;2022-12-29T13:03:37;8.00;;;1.57;;
2390;SDS011;22957;50.824;4.360;2022-12-29T13:09:08;9.47;;;1.50;;
2390;SDS011;22957;50.824;4.360;2022-12-29T13:15:09;6.23;;;1.40;;
2390;SDS011;22957;50.824;4.360;2022-12-29T13:23:16;8.23;;;1.37;;
2390;SDS011;22957;50.824;4.360;2022-12-29T13:26:08;7.40;;;1.20;;
2390;SDS011;22957;50.824;4.360;2022-12-29T13:31:35;10.67;;;1.57;;
2390;SDS011;22957;50.824;4.360;2022-12-29T13:37:10;11.03;;;1.77;;
2390;SDS011;22957;50.824;4.360;2022-12-29T13:39:43;11.13;;;1.30;;
2390;SDS011;22957;50.824;4.360;2022-12-29T13:42:14;12.87;;;1.47;;
2390;SDS011;22957;50.824;4.360;2022-12-29T13:44:45;5.70;;;1.50;;
2390;SDS011;22957;50.824;4.360;2022-12-29T13:47:21;6.80;;;1.33;;
2390;SDS011;22957;50.824;4.360;2022-12-29T13:49:56;11.60;;;1.60;;
2390;SDS011;22957;50.824;4.360;2022-12-29T13:52:39;8.07;;;1.37;;
2390;SDS011;22957;50.824;4.360;2022-12-29T14:00:45;6.40;;;1.20;;
2390;SDS011;22957;50.824;4.360;2022-12-29T14:03:20;10.57;;;1.97;;
2390;SDS011;22957;50.824;4.360;2022-12-29T14:06:02;11.03;;;1.37;;
2390;SDS011;22957;50.824;4.360;2022-12-29T14:08:57;12.03;;;1.77;;
2390;SDS011;22957;50.824;4.360;2022-12-29T14:11:30;11.83;;;1.43;;
2390;SDS011;22957;50.824;4.360;2022-12-29T14:13:56;10.90;;;1.60;;
2390;SDS011;22957;50.824;4.360;2022-12-29T14:16:26;15.87;;;2.77;;
2390;SDS011;22957;50.824;4.360;2022-12-29T14:19:03;16.70;;;2.97;;
2390;SDS011;22957;50.824;4.360;2022-12-29T14:21:34;11.73;;;1.93;;
2390;SDS011;22957;50.824;4.360;2022-12-29T14:34:53;11.80;;;1.57;;
2390;SDS011;22957;50.824;4.360;2022-12-29T14:37:27;6.43;;;1.40;;
2390;SDS011;22957;50.824;4.360;2022-12-29T14:42:51;13.13;;;1.50;;
2390;SDS011;22957;50.824;4.360;2022-12-29T14:45:30;10.03;;;1.70;;
2390;SDS011;22957;50.824;4.360;2022-12-29T14:48:02;10.70;;;1.60;;
2390;SDS011;22957;50.824;4.360;2022-12-29T14:50:49;10.87;;;1.50;;
2390;SDS011;22957;50.824;4.360;2022-12-29T14:56:08;7.23;;;1.30;;
2390;SDS011;22957;50.824;4.360;2022-12-29T14:58:39;4.80;;;1.00;;
2390;SDS011;22957;50.824;4.360;2022-12-29T15:01:46;4.87;;;1.20;;
2390;SDS011;22957;50.824;4.360;2022-12-29T15:04:21;11.47;;;1.70;;
2390;SDS011;22957;50.824;4.360;2022-12-29T15:06:52;8.57;;;1.10;;
2390;SDS011;22957;50.824;4.360;2022-12-29T15:09:28;4.07;;;1.03;;
2390;SDS011;22957;50.824;4.360;2022-12-29T15:11:57;7.57;;;1.10;;
2390;SDS011;22957;50.824;4.360;2022-12-29T15:16:55;4.83;;;1.17;;
2390;SDS011;22957;50.824;4.360;2022-12-29T15:19:24;6.50;;;1.03;;
2390;SDS011;22957;50.824;4.360;2022-12-29T15:21:52;6.17;;;1.13;;
2390;SDS011;22957;50.824;4.360;2022-12-29T15:24:19;9.50;;;1.50;;
2390;SDS011;22957;50.824;4.360;2022-12-29T15:26:46;3.93;;;0.80;;
2390;SDS011;22957;50.824;4.360;2022-12-29T15:32:26;6.47;;;1.20;;
2390;SDS011;22957;50.824;4.360;2022-12-29T15:34:55;6.77;;;1.20;;
2390;SDS011;22957;50.824;4.360;2022-12-29T15:37:27;5.87;;;1.03;;
2390;SDS011;22957;50.824;4.360;2022-12-29T15:39:57;6.00;;;1.03;;
2390;SDS011;22957;50.824;4.360;2022-12-29T15:45:11;6.27;;;1.10;;
2390;SDS011;22957;50.824;4.360;2022-12-29T15:47:38;5.30;;;1.13;;
2390;SDS011;22957;50.824;4.360;2022-12-29T15:50:09;8.97;;;1.10;;
2390;SDS011;22957;50.824;4.360;2022-12-29T15:52:42;5.40;;;1.50;;
2390;SDS011;22957;50.824;4.360;2022-12-29T15:55:16;5.67;;;1.50;;
2390;SDS011;22957;50.824;4.360;2022-12-29T15:57:55;8.47;;;1.27;;
2390;SDS011;22957;50.824;4.360;2022-12-29T16:00:30;6.87;;;1.23;;
2390;SDS011;22957;50.824;4.360;2022-12-29T16:03:03;8.33;;;1.50;;
2390;SDS011;22957;50.824;4.360;2022-12-29T16:05:37;8.40;;;1.43;;
2390;SDS011;22957;50.824;4.360;2022-12-29T16:08:15;7.70;;;1.47;;
2390;SDS011;22957;50.824;4.360;2022-12-29T16:11:02;6.20;;;1.30;;
2390;SDS011;22957;50.824;4.360;2022-12-29T16:13:32;16.43;;;2.30;;
2390;SDS011;22957;50.824;4.360;2022-12-29T16:16:07;4.80;;;1.50;;
2390;SDS011;22957;50.824;4.360;2022-12-29T16:18:39;8.63;;;1.70;;
2390;SDS011;22957;50.824;4.360;2022-12-29T16:21:05;7.53;;;1.33;;
2390;SDS011;22957;50.824;4.360;2022-12-29T16:23:40;13.90;;;2.37;;
2390;SDS011;22957;50.824;4.360;2022-12-29T16:26:17;9.53;;;2.07;;
2390;SDS011;22957;50.824;4.360;2022-12-29T16:28:46;14.40;;;2.30;;
2390;SDS011;22957;50.824;4.360;2022-12-29T16:31:17;9.77;;;2.30;;
2390;SDS011;22957;50.824;4.360;2022-12-29T16:33:55;14.23;;;1.70;;
2390;SDS011;22957;50.824;4.360;2022-12-29T16:36:24;7.10;;;1.87;;
2390;SDS011;22957;50.824;4.360;2022-12-29T16:41:36;15.33;;;1.80;;
2390;SDS011;22957;50.824;4.360;2022-12-29T16:44:12;13.60;;;2.03;;
2390;SDS011;22957;50.824;4.360;2022-12-29T16:46:57;10.50;;;2.50;;
2390;SDS011;22957;50.824;4.360;2022-12-29T16:49:26;17.40;;;4.13;;
2390;SDS011;22957;50.824;4.360;2022-12-29T16:51:53;12.97;;;2.90;;
2390;SDS011;22957;50.824;4.360;2022-12-29T16:54:38;14.80;;;3.70;;
2390;SDS011;22957;50.824;4.360;2022-12-29T16:57:05;15.70;;;3.00;;
2390;SDS011;22957;50.824;4.360;2022-12-29T16:59:39;11.93;;;3.03;;
2390;SDS011;22957;50.824;4.360;2022-12-29T17:02:16;16.30;;;3.80;;
2390;SDS011;22957;50.824;4.360;2022-12-29T17:04:45;9.27;;;2.20;;
2390;SDS011;22957;50.824;4.360;2022-12-29T17:07:17;15.30;;;3.20;;
2390;SDS011;22957;50.824;4.360;2022-12-29T17:09:44;15.83;;;3.20;;
2390;SDS011;22957;50.824;4.360;2022-12-29T17:12:14;13.33;;;2.57;;
2390;SDS011;22957;50.824;4.360;2022-12-29T17:19:51;17.73;;;2.90;;
2390;SDS011;22957;50.824;4.360;2022-12-29T17:22:23;11.27;;;2.37;;
2390;SDS011;22957;50.824;4.360;2022-12-29T17:24:51;14.73;;;2.77;;
2390;SDS011;22957;50.824;4.360;2022-12-29T17:27:27;20.83;;;3.83;;
2390;SDS011;22957;50.824;4.360;2022-12-29T17:29:58;12.70;;;2.37;;
2390;SDS011;22957;50.824;4.360;2022-12-29T17:32:27;10.77;;;2.30;;
2390;SDS011;22957;50.824;4.360;2022-12-29T17:34:54;13.73;;;2.60;;
2390;SDS011;22957;50.824;4.360;2022-12-29T17:39:48;10.90;;;2.00;;